Vilhelmina South Lapland Airport

ESNV · Västerbotten, Schweden

METAR-Geschichte ESNV · Vilhelmina Airport

Unten siehst du die METARs der letzten paar Tage. Wähle ein Jahr, um ältere METARs ab dem Jahr 2007 zu durchsuchen.

16. Juli 2024

Uhrzeit Code Wetter Temp. Sichtweite Wolkendecke Wind METAR/SPECI
16:50
V
20 °C 10 km+ - 140° 140° 5 kt METAR ESNV 161450Z 14005KT 9999 FEW039 SCT053 20/11 Q1015
16:20
V
20 °C 10 km+ - 100° 100° 6 kt METAR ESNV 161420Z 10006KT 9999 FEW039 SCT053 20/11 Q1015
15:50
V
21 °C 10 km+ 4.100 ft 160° 160° 4 kt METAR ESNV 161350Z 16004KT 120V210 9999 BKN041 21/11 Q1015
15:20
V
21 °C 10 km+ - 240° 240° 5 kt METAR ESNV 161320Z AUTO 24005KT 190V300 9999 FEW039/// 21/12 Q1015
14:50
V
20 °C 10 km+ - 170° 170° 4 kt METAR ESNV 161250Z 17004KT 130V240 9999 SCT035 20/11 Q1015
14:20
M
20 °C 10 km+ 3.000 ft 190° 190° 5 kt METAR ESNV 161220Z 19005KT 130V260 9999 BKN030 20/12 Q1015
13:50
V
19 °C 10 km+ 3.500 ft 180° 180° 4 kt METAR ESNV 161150Z 18004KT 080V230 9999 SCT027 BKN035 19/12 Q1015
13:20
V
18 °C 10 km+ 3.100 ft Var Var 1 kt METAR ESNV 161120Z AUTO VRB01KT 9999 BKN031/// 18/12 Q1015
12:50
V
18 °C 10 km+ 3.200 ft 210° 210° 5 kt METAR ESNV 161050Z AUTO 21005KT 150V240 9999 SCT024/// BKN032/// 18/11 Q1015
12:20
M
18 °C 10 km+ 2.500 ft 180° 180° 5 kt METAR ESNV 161020Z AUTO 18005KT 120V240 9999 SCT020/// BKN025/// 18/12 Q1015
11:50
M
17 °C 10 km+ 1.700 ft 150° 150° 5 kt METAR ESNV 160950Z 15005KT 110V210 9999 BKN017 BKN074 17/13 Q1015
11:20
V
17 °C 10 km+ 3.200 ft 160° 160° 5 kt METAR ESNV 160920Z 16005KT 120V220 9999 SCT015 BKN032 17/13 Q1015
10:50
M
16 °C 10 km+ 1.100 ft 130° 130° 4 kt METAR ESNV 160850Z 13004KT 090V180 9999 BKN011 OVC022 16/13 Q1015
09:50
M
16 °C 10 km+ 1.200 ft 100° 100° 4 kt METAR ESNV 160750Z AUTO 10004KT 060V130 9999 FEW005/// SCT008/// BKN012/// 16/14 Q1015
09:20
M
15 °C 10 km+ 1.200 ft 120° 120° 5 kt METAR ESNV 160720Z AUTO 12005KT 9999 SCT005/// OVC012/// 15/13 Q1015
08:50
I
15 °C 10 km+ 500 ft 110° 110° 6 kt METAR ESNV 160650Z AUTO 11006KT 9999 BKN005/// BKN065/// OVC083/// 15/14 Q1015
08:20
V
14 °C 10 km+ - 110° 110° 5 kt METAR ESNV 160620Z AUTO 11005KT 9999 -RA SCT004/// 14/13 Q1015
07:50
L
14 °C 8 km 400 ft 090° 090° 4 kt METAR ESNV 160550Z AUTO 09004KT 8000 -RA BKN004/// OVC007/// 14/13 Q1015 RERA
07:20
I
14 °C 8 km 600 ft 130° 130° 4 kt METAR ESNV 160520Z AUTO 13004KT 8000 BKN006/// BKN008/// OVC010/// 14/13 Q1015
06:50
L
14 °C 9 km 400 ft 120° 120° 6 kt METAR ESNV 160450Z AUTO 12006KT 9000 OVC004/// 14/13 Q1014
06:20
L
13 °C 7 km 300 ft 110° 110° 6 kt METAR ESNV 160420Z AUTO 11006KT 7000 BKN003/// OVC004/// 13/13 Q1014
05:50
L
13 °C 8 km 300 ft 090° 090° 4 kt METAR ESNV 160350Z AUTO 09004KT 8000 OVC003/// 13/13 Q1014
05:20
L
13 °C 9 km 300 ft 070° 070° 3 kt METAR ESNV 160320Z AUTO 07003KT 9000 OVC003/// 13/13 Q1014
04:50
L
13 °C 9 km 300 ft 080° 080° 3 kt METAR ESNV 160250Z AUTO 08003KT 9000 OVC003/// 13/13 Q1014
04:20
L
12 °C 8 km 300 ft Var Var 2 kt METAR ESNV 160220Z AUTO VRB02KT 8000 OVC003/// 12/12 Q1014
03:50
I
11 °C 6 km 500 ft 210° 210° 2 kt METAR ESNV 160150Z AUTO 21002KT 6000 OVC005/// 11/10 Q1014 RERA
03:20
L
10 °C 650 m 500 ft 360° 360° 0 kt METAR ESNV 160120Z AUTO 00000KT 0650 R10/1300U R28/1500U RA FEW003/// OVC005/// 10/09 Q1014
02:50
L
10 °C 150 m 500 ft 360° 360° 0 kt METAR ESNV 160050Z AUTO 00000KT 0150 R10/0450N R28/0700N RA OVC005/// 10/10 Q1014
02:20
L
10 °C 150 m - 360° 360° 0 kt METAR ESNV 160020Z AUTO 00000KT 0150 R10/0400N R28/0800N +RA SCT006/// 10/10 Q1014
01:50
L
10 °C 200 m - 360° 360° 0 kt METAR ESNV 152350Z AUTO 00000KT 0200 R10/0650N R28/0550N RA FEW012/// SCT100/// 10/10 Q1013
01:20
L
10 °C 300 m - Var Var 1 kt METAR ESNV 152320Z AUTO VRB01KT 0300 R10/0650N R28/1000D +RA FEW007/// 10/10 Q1013
00:50
L
11 °C 200 m - 050° 050° 3 kt METAR ESNV 152250Z AUTO 05003KT 0200 R10/0450N R28/0650N BCFG FEW007/// 11/11 Q1013
00:20
L
12 °C 250 m - Var Var 3 kt METAR ESNV 152220Z AUTO VRB03KT 0250 R10/P2000N R28/P2000D BR FEW038/// 12/12 Q1013

15. Juli 2024

Uhrzeit Code Wetter Temp. Sichtweite Wolkendecke Wind METAR/SPECI
23:50
V
13 °C 10 km+ 11.000 ft Var Var 2 kt METAR ESNV 152150Z AUTO VRB02KT 9999 FEW028/// SCT036/// OVC110/// 13/12 Q1013
23:20
V
13 °C 10 km+ 10.000 ft Var Var 2 kt METAR ESNV 152120Z AUTO VRB02KT 9999 OVC100/// 13/13 Q1013
22:50
V
13 °C 10 km+ 8.300 ft 100° 100° 3 kt METAR ESNV 152050Z AUTO 10003KT 9999 OVC083/// 13/13 Q1013
22:20
V
13 °C 10 km+ 10.000 ft Var Var 1 kt METAR ESNV 152020Z AUTO VRB01KT 9999 FEW084/// BKN100/// 13/12 Q1013
21:50
V
13 °C 10 km+ - 100° 100° 4 kt METAR ESNV 151950Z AUTO 10004KT 9999 -DZ FEW064/// SCT080/// 13/12 Q1013
21:20
V
14 °C 10 km+ 7.400 ft 080° 080° 4 kt METAR ESNV 151920Z AUTO 08004KT 9999 +RA OVC074/// 14/13 Q1013
20:50
I
14 °C 3,7 km 4.800 ft 120° 120° 11 kt METAR ESNV 151850Z AUTO 12011KT 3700 +RA FEW018/// BKN048/// BKN059/// 14/12 Q1013
20:20
V
17 °C 10 km+ 3.700 ft 090° 090° 5 kt METAR ESNV 151820Z AUTO 09005KT 9999 SCT023/// BKN037/// 17/13 Q1012
19:50
V
17 °C 10 km+ 15.000 ft Var Var 3 kt METAR ESNV 151750Z AUTO VRB03KT 9999 SCT022/// OVC150/// 17/14 Q1012
19:20
V
17 °C 10 km+ - 090° 090° 4 kt METAR ESNV 151720Z AUTO 09004KT 9999 FEW078/// SCT150/// 17/14 Q1012
18:50
V
17 °C 10 km+ 7.300 ft 090° 090° 4 kt METAR ESNV 151650Z AUTO 09004KT 9999 FEW020/// BKN073/// BKN098/// 17/14 Q1012
18:20
V
17 °C 10 km+ 4.300 ft 090° 090° 7 kt METAR ESNV 151620Z AUTO 09007KT 9999 -RA FEW003/// SCT025/// BKN043/// 17/13 Q1012
17:50
M
17 °C 10 km+ 2.600 ft 100° 100° 7 kt METAR ESNV 151550Z AUTO 10007KT 070V130 9999 SCT019/// BKN026/// BKN077/// 17/14 Q1012
17:20
V
17 °C 10 km+ - 100° 100° 7 kt METAR ESNV 151520Z AUTO 10007KT 060V120 9999 FEW020/// SCT120/// 17/14 Q1012
15:50
V
17 °C 10 km+ 7.200 ft 090° 090° 5 kt METAR ESNV 151350Z 09005KT 050V110 9999 -RA BKN072 17/14 Q1012
15:20
V
17 °C 10 km+ 6.800 ft 100° 100° 7 kt METAR ESNV 151320Z AUTO 10007KT 070V130 9999 OVC068/// 17/13 Q1012
14:50
M
17 °C 10 km+ 2.300 ft 080° 080° 6 kt METAR ESNV 151250Z 08006KT 9999 SCT017 BKN023 17/14 Q1012
14:20
V
17 °C 10 km+ - 090° 090° 6 kt METAR ESNV 151220Z 09006KT 9999 FEW037 SCT057 17/14 Q1012
13:50
V
17 °C 10 km+ - 090° 090° 7 kt METAR ESNV 151150Z 09007KT 9999 FEW018 17/14 Q1012
13:20
V
17 °C 10 km+ 5.600 ft 090° 090° 6 kt METAR ESNV 151120Z AUTO 09006KT 9999 FEW017/// SCT023/// BKN056/// 17/13 Q1012
12:50
V
17 °C 10 km+ 5.300 ft 100° 100° 6 kt METAR ESNV 151050Z AUTO 10006KT 070V130 9999 FEW014/// OVC053/// 17/14 Q1012
12:20
M
17 °C 10 km+ 2.100 ft 120° 120° 6 kt METAR ESNV 151020Z AUTO 12006KT 080V150 9999 BKN021/// OVC048/// 17/14 Q1012
11:50
M
16 °C 10 km+ 1.500 ft 100° 100° 6 kt METAR ESNV 150950Z 10006KT 070V130 9999 BKN015 OVC025 16/13 Q1012
11:20
M
16 °C 10 km+ 1.300 ft 100° 100° 8 kt METAR ESNV 150920Z 10008KT 080V140 9999 BKN013 OVC160 16/13 Q1013
10:50
M
16 °C 10 km+ 1.200 ft 110° 110° 7 kt METAR ESNV 150850Z 11007KT 9999 OVC012 16/13 Q1012
10:20
M
16 °C 10 km+ 1.200 ft 110° 110° 6 kt METAR ESNV 150820Z AUTO 11006KT 070V130 9999 OVC012/// 16/13 Q1013
09:50
M
15 °C 10 km+ 1.100 ft 100° 100° 6 kt METAR ESNV 150750Z AUTO 10006KT 050V140 9999 OVC011/// 15/14 Q1012
09:20
M
15 °C 10 km+ 1.000 ft 110° 110° 8 kt METAR ESNV 150720Z AUTO 11008KT 9999 OVC010/// 15/13 Q1012
08:50
I
15 °C 10 km+ 900 ft 100° 100° 8 kt METAR ESNV 150650Z AUTO 10008KT 9999 OVC009/// 15/13 Q1012
08:20
I
14 °C 10 km+ 900 ft 100° 100° 7 kt METAR ESNV 150620Z AUTO 10007KT 9999 OVC009/// 14/13 Q1012
07:50
I
14 °C 10 km+ 800 ft 090° 090° 6 kt METAR ESNV 150550Z AUTO 09006KT 9999 OVC008/// 14/13 Q1012
07:20
I
14 °C 10 km+ 800 ft 090° 090° 5 kt METAR ESNV 150520Z AUTO 09005KT 040V140 9999 BKN008/// OVC043/// 14/13 Q1012
06:50
V
14 °C 10 km+ 4.100 ft Var Var 3 kt METAR ESNV 150450Z AUTO VRB03KT 9999 FEW005/// SCT009/// BKN041/// 14/13 Q1012
06:20
I
13 °C 10 km+ 800 ft 060° 060° 4 kt METAR ESNV 150420Z AUTO 06004KT 9999 FEW005/// BKN008/// OVC032/// 13/13 Q1012
05:50
V
13 °C 10 km+ 3.100 ft 060° 060° 5 kt METAR ESNV 150350Z AUTO 06005KT 030V090 9999 FEW008/// OVC031/// 13/12 Q1012 RERA
05:20
I
13 °C 5 km 800 ft 040° 040° 5 kt METAR ESNV 150320Z AUTO 04005KT 010V070 5000 -RA FEW003/// SCT005/// BKN008/// 13/12 Q1012
04:50
L
13 °C 4,4 km 400 ft 050° 050° 4 kt METAR ESNV 150250Z AUTO 05004KT 4400 RA BKN004/// BKN007/// OVC013/// 13/12 Q1013 REDZ
04:20
I
13 °C 6 km 900 ft 070° 070° 3 kt METAR ESNV 150220Z AUTO 07003KT 030V090 6000 -RA VV009 13/12 Q1013
03:50
I
13 °C 3,8 km 1.600 ft 110° 110° 4 kt METAR ESNV 150150Z AUTO 11004KT 070V130 3800 +RA FEW003/// SCT010/// OVC016/// 13/12 Q1013
03:20
M
13 °C 7 km 6.100 ft 080° 080° 3 kt METAR ESNV 150120Z AUTO 08003KT 040V100 7000 -RA SCT016/// OVC061/// 13/12 Q1013
02:50
V
13 °C 10 km+ 5.100 ft 070° 070° 4 kt METAR ESNV 150050Z AUTO 07004KT 9999 -RA BKN051/// OVC067/// 13/12 Q1013
02:20
V
14 °C 10 km+ 7.200 ft 080° 080° 5 kt METAR ESNV 150020Z AUTO 08005KT 040V100 9999 -RA FEW046/// OVC072/// 14/12 Q1013
01:50
V
15 °C 10 km+ 7.600 ft 080° 080° 5 kt METAR ESNV 142350Z AUTO 08005KT 040V100 9999 -RA OVC076/// 15/12 Q1013
01:20
V
15 °C 10 km+ 7.900 ft 090° 090° 6 kt METAR ESNV 142320Z AUTO 09006KT 9999 -RA FEW022/// OVC079/// 15/12 Q1013
00:50
V
15 °C 10 km+ 7.900 ft 080° 080° 6 kt METAR ESNV 142250Z AUTO 08006KT 9999 SCT023/// OVC079/// 15/11 Q1013
00:20
V
16 °C 10 km+ 10.000 ft 080° 080° 5 kt METAR ESNV 142220Z AUTO 08005KT 9999 FEW025/// SCT084/// OVC100/// 16/11 Q1013

14. Juli 2024

Uhrzeit Code Wetter Temp. Sichtweite Wolkendecke Wind METAR/SPECI
23:50
V
16 °C 10 km+ 12.000 ft 070° 070° 4 kt METAR ESNV 142150Z AUTO 07004KT 050V110 9999 FEW022/// SCT085/// BKN120/// 16/11 Q1013
23:20
V
16 °C 10 km+ 18.000 ft Var Var 2 kt METAR ESNV 142120Z AUTO VRB02KT 9999 BKN180/// OVC210/// 16/10 Q1013
22:50
V
16 °C 10 km+ 18.000 ft 070° 070° 4 kt METAR ESNV 142050Z AUTO 07004KT 9999 OVC180/// 16/09 Q1013
22:20
V
17 °C 10 km+ 18.000 ft 070° 070° 3 kt METAR ESNV 142020Z AUTO 07003KT 9999 OVC180/// 17/09 Q1013
21:50
V
17 °C 10 km+ 18.000 ft 090° 090° 6 kt METAR ESNV 141950Z AUTO 09006KT 9999 FEW027/// BKN180/// OVC220/// 17/09 Q1013
21:20
V
18 °C 10 km+ 19.000 ft 080° 080° 4 kt METAR ESNV 141920Z AUTO 08004KT 9999 OVC190/// 18/10 Q1013
20:50
V
18 °C 10 km+ 19.000 ft 070° 070° 4 kt METAR ESNV 141850Z AUTO 07004KT 9999 BKN190/// 18/09 Q1013
20:20
V
19 °C 10 km+ - 070° 070° 5 kt METAR ESNV 141820Z AUTO 07005KT 9999 SCT200/// 19/09 Q1013
19:50
V
20 °C 10 km+ 21.000 ft 090° 090° 7 kt METAR ESNV 141750Z AUTO 09007KT 060V120 9999 BKN210/// 20/09 Q1013
19:20
V
20 °C 10 km+ - 090° 090° 7 kt METAR ESNV 141720Z AUTO 09007KT 070V140 9999 FEW210/// 20/10 Q1013
18:50
V
21 °C 10 km+ - 100° 100° 9 kt METAR ESNV 141650Z AUTO 10009KT 9999 FEW220/// 21/09 Q1013
18:20
V
21 °C 10 km+ - 100° 100° 7 kt METAR ESNV 141620Z AUTO 10007KT 9999 FEW210/// 21/10 Q1013
17:50
V
22 °C 10 km+ - 110° 110° 9 kt METAR ESNV 141550Z 11009KT 9999 NSC 22/10 Q1013
17:20
V
22 °C 10 km+ - 110° 110° 12 kt METAR ESNV 141520Z 11012KT 9999 NSC 22/10 Q1013
16:50
V
23 °C 10 km+ - 060° 060° 8 kt METAR ESNV 141450Z 06008KT 030V090 9999 NSC 23/11 Q1013
16:20
V
21 °C 10 km+ - 080° 080° 8 kt METAR ESNV 141420Z AUTO 08008KT 040V110 9999 NCD 21/09 Q1013
15:50
V
22 °C 10 km+ - 100° 100° 10 kt METAR ESNV 141350Z AUTO 10010KT 050V130 9999 NCD 22/08 Q1014
15:20
V
22 °C 10 km+ - 100° 100° 10 kt METAR ESNV 141320Z AUTO 10010KT 060V130 9999 FEW200/// 22/09 Q1014
14:50
V
22 °C 10 km+ - 080° 080° 8 kt METAR ESNV 141250Z AUTO 08008KT 050V110 9999 FEW210/// 22/10 Q1014
14:20
V
21 °C 10 km+ - 090° 090° 9 kt METAR ESNV 141220Z AUTO 09009KT 060V120 9999 FEW190/// 21/10 Q1014
13:50
V
21 °C 10 km+ - 100° 100° 8 kt METAR ESNV 141150Z AUTO 10008KT 9999 NCD 21/10 Q1014
13:20
V
22 °C 10 km+ - 100° 100° 9 kt METAR ESNV 141120Z AUTO 10009KT 060V120 9999 FEW047/// 22/09 Q1014
12:50
V
22 °C 10 km+ - 070° 070° 8 kt METAR ESNV 141050Z AUTO 07008KT 040V130 9999 NCD 22/10 Q1014
12:20
V
21 °C 10 km+ - 080° 080° 9 kt METAR ESNV 141020Z AUTO 08009KT 060V120 9999 FEW044/// 21/09 Q1014
11:50
V
20 °C 10 km+ - 070° 070° 9 kt METAR ESNV 140950Z AUTO 07009KT 030V120 9999 NCD 20/10 Q1015
11:20
V
20 °C 10 km+ - 100° 100° 10 kt METAR ESNV 140920Z AUTO 10010KT 050V130 9999 NCD 20/09 Q1015
10:50
V
20 °C 10 km+ - 090° 090° 8 kt METAR ESNV 140850Z AUTO 09008KT 040V130 9999 NCD 20/10 Q1015
10:20
V
20 °C 10 km+ - 080° 080° 8 kt METAR ESNV 140820Z AUTO 08008KT 040V100 9999 FEW037/// 20/10 Q1015
09:50
V
19 °C 10 km+ - 080° 080° 8 kt METAR ESNV 140750Z AUTO 08008KT 050V120 9999 NCD 19/10 Q1015
09:20
V
19 °C 10 km+ - 070° 070° 7 kt METAR ESNV 140720Z AUTO 07007KT 030V100 9999 NCD 19/10 Q1015
08:50
V
18 °C 10 km+ - 080° 080° 8 kt METAR ESNV 140650Z AUTO 08008KT 050V110 9999 NCD 18/10 Q1016
08:20
V
18 °C 10 km+ - 090° 090° 8 kt METAR ESNV 140620Z AUTO 09008KT 060V120 9999 NCD 18/09 Q1016
07:50
V
18 °C 10 km+ - 090° 090° 7 kt METAR ESNV 140550Z AUTO 09007KT 9999 NCD 18/10 Q1016
Eine Änderung melden